createdAt,value
2018-01-20T00:00:02.377Z,783.72
2018-01-20T00:00:06.410Z,783.7
2018-01-20T00:00:10.104Z,783.74
2018-01-20T00:00:14.120Z,783.73
2018-01-20T00:00:18.251Z,783.71
2018-01-20T00:00:22.064Z,783.72
2018-01-20T00:00:26.299Z,783.69
2018-01-20T00:00:30.216Z,783.72
2018-01-20T00:00:34.143Z,783.69
2018-01-20T00:00:38.383Z,783.7
2018-01-20T00:00:42.076Z,783.71
2018-01-20T00:00:46.112Z,783.72
2018-01-20T00:00:50.015Z,783.67
2018-01-20T00:00:53.913Z,783.7
2018-01-20T00:00:58.031Z,783.68
2018-01-20T00:01:02.315Z,783.68
2018-01-20T00:01:06.031Z,783.66
2018-01-20T00:01:09.838Z,783.66
2018-01-20T00:01:13.631Z,783.66
2018-01-20T00:01:17.742Z,783.66
2018-01-20T00:01:21.654Z,783.64
2018-01-20T00:01:25.573Z,783.63
2018-01-20T00:01:29.692Z,783.62
2018-01-20T00:01:33.815Z,783.61
2018-01-20T00:01:37.731Z,783.64
2018-01-20T00:01:41.760Z,783.64
2018-01-20T00:01:45.788Z,783.66
2018-01-20T00:01:49.823Z,783.62
2018-01-20T00:01:53.733Z,783.66
2018-01-20T00:01:57.427Z,783.62
2018-01-20T00:02:01.536Z,783.62
2018-01-20T00:02:05.446Z,783.62
2018-01-20T00:02:09.475Z,783.6
2018-01-20T00:02:13.275Z,783.62
2018-01-20T00:02:17.616Z,783.61
2018-01-20T00:02:21.408Z,783.58
2018-01-20T00:02:25.412Z,783.61
2018-01-20T00:02:29.222Z,783.6
2018-01-20T00:02:33.035Z,783.58
2018-01-20T00:02:37.165Z,783.55
2018-01-20T00:02:41.177Z,783.52
2018-01-20T00:02:45.080Z,783.54
2018-01-20T00:02:48.891Z,783.53
2018-01-20T00:02:52.911Z,783.53
2018-01-20T00:02:56.835Z,783.5
2018-01-20T00:03:00.542Z,783.51
2018-01-20T00:03:04.697Z,783.48
2018-01-20T00:03:08.617Z,783.47
2018-01-20T00:03:12.554Z,783.5
2018-01-20T00:03:16.459Z,783.49
2018-01-20T00:03:20.369Z,783.46
2018-01-20T00:03:24.273Z,783.45
2018-01-20T00:03:28.189Z,783.48
2018-01-20T00:03:32.096Z,783.44
2018-01-20T00:03:36.014Z,783.46
2018-01-20T00:03:39.925Z,783.45
2018-01-20T00:03:43.937Z,783.42
2018-01-20T00:03:47.871Z,783.43
2018-01-20T00:03:51.575Z,783.39
2018-01-20T00:03:55.298Z,783.41
2018-01-20T00:03:59.098Z,783.4
2018-01-20T00:04:03.636Z,783.42
2018-01-20T00:04:07.541Z,783.38
2018-01-20T00:04:11.356Z,783.36
2018-01-20T00:04:15.373Z,783.37
2018-01-20T00:04:19.603Z,783.35
2018-01-20T00:04:23.420Z,783.33
2018-01-20T00:04:27.647Z,783.32
2018-01-20T00:04:31.455Z,783.33
2018-01-20T00:04:35.269Z,783.32
2018-01-20T00:04:38.976Z,783.29
2018-01-20T00:04:42.987Z,783.28
2018-01-20T00:04:47.120Z,783.29
2018-01-20T00:04:50.930Z,783.29
2018-01-20T00:04:54.626Z,783.26
2018-01-20T00:04:58.529Z,783.27
2018-01-20T00:05:02.540Z,783.27
2018-01-20T00:05:06.343Z,783.23
2018-01-20T00:05:10.146Z,783.21
2018-01-20T00:05:14.052Z,783.24
2018-01-20T00:05:18.186Z,783.23
2018-01-20T00:05:22.302Z,783.19
2018-01-20T00:05:26.421Z,783.18
2018-01-20T00:05:30.657Z,783.17
2018-01-20T00:05:34.664Z,783.18
2018-01-20T00:05:38.663Z,783.19
2018-01-20T00:05:42.464Z,783.2
2018-01-20T00:05:46.367Z,783.18
2018-01-20T00:05:50.195Z,783.17
2018-01-20T00:05:54.109Z,783.14
2018-01-20T00:05:57.912Z,783.13
2018-01-20T00:06:02.025Z,783.16
2018-01-20T00:06:05.834Z,783.11
2018-01-20T00:06:09.637Z,783.09
2018-01-20T00:06:13.668Z,783.12
2018-01-20T00:06:17.686Z,783.11
2018-01-20T00:06:21.714Z,783.11
2018-01-20T00:06:25.858Z,783.05
2018-01-20T00:06:29.979Z,783.07
2018-01-20T00:06:33.894Z,783.09
2018-01-20T00:06:37.704Z,783.04
2018-01-20T00:06:41.820Z,783.06
2018-01-20T00:06:45.855Z,783.05
2018-01-20T00:06:49.992Z,783.07
2018-01-20T00:06:53.921Z,783.04
2018-01-20T00:06:57.822Z,783.01
2018-01-20T00:07:01.618Z,783.03
2018-01-20T00:07:05.638Z,782.98
2018-01-20T00:07:09.650Z,783.02
2018-01-20T00:07:13.585Z,782.97
2018-01-20T00:07:17.408Z,782.97
2018-01-20T00:07:21.420Z,782.97
2018-01-20T00:07:25.560Z,782.96
2018-01-20T00:07:29.482Z,782.96
2018-01-20T00:07:33.375Z,782.94
2018-01-20T00:07:37.495Z,782.98
2018-01-20T00:07:41.200Z,782.98
2018-01-20T00:07:45.317Z,782.94
2018-01-20T00:07:49.328Z,782.92
2018-01-20T00:07:53.144Z,782.94
2018-01-20T00:07:57.040Z,782.95
2018-01-20T00:08:00.951Z,782.92
2018-01-20T00:08:04.872Z,782.87
2018-01-20T00:08:08.571Z,782.88
2018-01-20T00:08:12.476Z,782.88
2018-01-20T00:08:16.289Z,782.87
2018-01-20T00:08:20.095Z,782.91
2018-01-20T00:08:24.429Z,782.89
2018-01-20T00:08:28.342Z,782.89
2018-01-20T00:08:32.461Z,782.9
2018-01-20T00:08:36.576Z,782.81
2018-01-20T00:08:40.698Z,782.83
2018-01-20T00:08:44.616Z,782.8
2018-01-20T00:08:48.543Z,782.82
2018-01-20T00:08:52.245Z,782.8
2018-01-20T00:08:56.152Z,782.8
2018-01-20T00:09:00.281Z,782.81
2018-01-20T00:09:04.192Z,782.82
2018-01-20T00:09:07.999Z,782.82
2018-01-20T00:09:11.815Z,782.81
2018-01-20T00:09:15.735Z,782.81
2018-01-20T00:09:19.984Z,782.82
2018-01-20T00:09:23.900Z,782.77
2018-01-20T00:09:27.921Z,782.78
2018-01-20T00:09:31.828Z,782.8
2018-01-20T00:09:35.543Z,782.75
2018-01-20T00:09:39.346Z,782.72
2018-01-20T00:09:43.268Z,782.72
2018-01-20T00:09:47.274Z,782.74
2018-01-20T00:09:51.080Z,782.74
2018-01-20T00:09:54.995Z,782.74
2018-01-20T00:09:59.109Z,782.71
2018-01-20T00:10:03.332Z,782.72
2018-01-20T00:10:07.451Z,782.7
2018-01-20T00:10:11.578Z,782.69
2018-01-20T00:10:15.590Z,782.7
2018-01-20T00:10:19.719Z,782.67
2018-01-20T00:10:23.635Z,782.7
2018-01-20T00:10:27.653Z,782.65
2018-01-20T00:10:31.776Z,782.66
2018-01-20T00:10:35.789Z,782.66
2018-01-20T00:10:39.927Z,782.67
2018-01-20T00:10:43.830Z,782.64
2018-01-20T00:10:47.740Z,782.66
2018-01-20T00:10:51.761Z,782.64
2018-01-20T00:10:55.574Z,782.61
2018-01-20T00:10:59.376Z,782.6
2018-01-20T00:11:03.657Z,782.59
2018-01-20T00:11:07.568Z,782.6
2018-01-20T00:11:11.382Z,782.6
2018-01-20T00:11:15.301Z,782.57
2018-01-20T00:11:19.341Z,782.58
2018-01-20T00:11:23.255Z,782.57
2018-01-20T00:11:27.279Z,782.53
2018-01-20T00:11:31.204Z,782.6
2018-01-20T00:11:35.021Z,782.55
2018-01-20T00:11:39.036Z,782.53
2018-01-20T00:11:43.165Z,782.56
2018-01-20T00:11:47.063Z,782.51
2018-01-20T00:11:50.873Z,782.49
2018-01-20T00:11:54.876Z,782.5
2018-01-20T00:11:58.671Z,782.48
2018-01-20T00:12:02.699Z,782.5
2018-01-20T00:12:06.815Z,782.48
2018-01-20T00:12:10.726Z,782.47
2018-01-20T00:12:14.424Z,782.45
2018-01-20T00:12:18.442Z,782.46
2018-01-20T00:12:22.341Z,782.44
2018-01-20T00:12:26.260Z,782.44
2018-01-20T00:12:30.378Z,782.44
2018-01-20T00:12:34.287Z,782.43
2018-01-20T00:12:38.310Z,782.41
2018-01-20T00:12:42.216Z,782.41
2018-01-20T00:12:46.020Z,782.43
2018-01-20T00:12:49.944Z,782.35
2018-01-20T00:12:53.765Z,782.38
2018-01-20T00:12:57.717Z,782.36
2018-01-20T00:13:01.517Z,782.38
2018-01-20T00:13:05.431Z,782.38
2018-01-20T00:13:09.549Z,782.38
2018-01-20T00:13:13.376Z,782.35
2018-01-20T00:13:17.603Z,782.33
2018-01-20T00:13:21.730Z,782.36
2018-01-20T00:13:25.585Z,782.35
2018-01-20T00:13:29.615Z,782.34
2018-01-20T00:13:33.420Z,782.32
2018-01-20T00:13:37.338Z,782.33
2018-01-20T00:13:41.064Z,782.28
2018-01-20T00:13:45.069Z,782.33
2018-01-20T00:13:49.078Z,782.28
2018-01-20T00:13:52.889Z,782.29
2018-01-20T00:13:56.815Z,782.31
2018-01-20T00:14:00.633Z,782.26
2018-01-20T00:14:04.554Z,782.24
2018-01-20T00:14:08.463Z,782.23
2018-01-20T00:14:12.378Z,782.25
2018-01-20T00:14:16.491Z,782.21
2018-01-20T00:14:20.399Z,782.19
2018-01-20T00:14:24.228Z,782.17
2018-01-20T00:14:27.937Z,782.16
2018-01-20T00:14:31.842Z,782.18
2018-01-20T00:14:35.881Z,782.15
2018-01-20T00:14:39.603Z,782.2
2018-01-20T00:14:43.434Z,782.17
2018-01-20T00:14:47.567Z,782.19
2018-01-20T00:14:51.481Z,782.19
2018-01-20T00:14:55.503Z,782.17
2018-01-20T00:14:59.522Z,782.17
2018-01-20T00:15:03.324Z,782.16
2018-01-20T00:15:07.227Z,782.16
2018-01-20T00:15:11.028Z,782.15
2018-01-20T00:15:15.048Z,782.15
2018-01-20T00:15:18.964Z,782.15
2018-01-20T00:15:23.088Z,782.14
2018-01-20T00:15:27.005Z,782.15
2018-01-20T00:15:30.909Z,782.13
2018-01-20T00:15:34.835Z,782.12
2018-01-20T00:15:38.633Z,782.11
2018-01-20T00:15:42.537Z,782.07
2018-01-20T00:15:46.668Z,782.12
2018-01-20T00:15:50.585Z,782.09
2018-01-20T00:15:54.375Z,782.1
2018-01-20T00:15:58.382Z,782.07
2018-01-20T00:16:02.351Z,782.04
2018-01-20T00:16:06.280Z,782.06
2018-01-20T00:16:10.287Z,782.07
2018-01-20T00:16:14.650Z,782.03
2018-01-20T00:16:18.680Z,782.04
2018-01-20T00:16:22.595Z,782.07
2018-01-20T00:16:26.511Z,782.05
2018-01-20T00:16:30.419Z,782.02
2018-01-20T00:16:34.224Z,782.04
2018-01-20T00:16:38.143Z,782.04
2018-01-20T00:16:41.958Z,782.03
2018-01-20T00:16:45.763Z,782.02
2018-01-20T00:16:49.563Z,782.01
2018-01-20T00:16:53.271Z,781.94
2018-01-20T00:16:57.183Z,781.93
2018-01-20T00:17:01.296Z,781.94
2018-01-20T00:17:05.531Z,781.91
2018-01-20T00:17:09.388Z,781.93
2018-01-20T00:17:13.310Z,781.95
2018-01-20T00:17:17.426Z,781.94
2018-01-20T00:17:21.547Z,781.95
2018-01-20T00:17:25.238Z,781.93
2018-01-20T00:17:28.936Z,781.96
2018-01-20T00:17:32.856Z,781.97
2018-01-20T00:17:36.875Z,781.96
2018-01-20T00:17:40.892Z,781.93
2018-01-20T00:17:44.898Z,781.97
2018-01-20T00:17:48.908Z,781.94
2018-01-20T00:17:52.816Z,781.97
2018-01-20T00:17:56.619Z,781.93
2018-01-20T00:18:00.411Z,781.97
2018-01-20T00:18:04.576Z,781.98
2018-01-20T00:18:08.492Z,781.95
2018-01-20T00:18:12.301Z,781.97
2018-01-20T00:18:16.334Z,781.94
2018-01-20T00:18:20.345Z,781.96
2018-01-20T00:18:24.261Z,781.94
2018-01-20T00:18:28.180Z,781.94
2018-01-20T00:18:32.002Z,781.94
2018-01-20T00:18:35.795Z,781.96
2018-01-20T00:18:39.497Z,781.96
2018-01-20T00:18:43.499Z,781.97
2018-01-20T00:18:47.437Z,781.95
2018-01-20T00:18:51.343Z,781.97
2018-01-20T00:18:55.163Z,781.96
2018-01-20T00:18:59.086Z,781.95
2018-01-20T00:19:03.362Z,781.92
2018-01-20T00:19:07.268Z,781.97
2018-01-20T00:19:11.286Z,781.95
2018-01-20T00:19:15.304Z,781.96
2018-01-20T00:19:19.325Z,781.98
2018-01-20T00:19:23.138Z,782
2018-01-20T00:19:27.065Z,781.97
2018-01-20T00:19:30.980Z,781.97
2018-01-20T00:19:35.093Z,781.98
2018-01-20T00:19:38.911Z,781.99
2018-01-20T00:19:42.725Z,782.01
2018-01-20T00:19:46.423Z,782.02
2018-01-20T00:19:50.342Z,781.98
2018-01-20T00:19:54.150Z,781.98
2018-01-20T00:19:58.325Z,781.97
2018-01-20T00:20:02.563Z,781.99
2018-01-20T00:20:06.255Z,781.98
2018-01-20T00:20:10.079Z,781.98
2018-01-20T00:20:14.100Z,781.97
2018-01-20T00:20:17.818Z,781.99
2018-01-20T00:20:21.733Z,782.01
2018-01-20T00:20:25.754Z,781.99
2018-01-20T00:20:29.671Z,782.01
2018-01-20T00:20:33.473Z,782.03
2018-01-20T00:20:37.366Z,782
2018-01-20T00:20:41.276Z,782.01
2018-01-20T00:20:45.173Z,782
2018-01-20T00:20:49.401Z,782.04
2018-01-20T00:20:53.209Z,782.01
2018-01-20T00:20:57.224Z,782.02
2018-01-20T00:21:01.169Z,782.04
2018-01-20T00:21:05.312Z,782.03
2018-01-20T00:21:09.244Z,782.05
2018-01-20T00:21:13.167Z,782.06
2018-01-20T00:21:17.192Z,782.07
2018-01-20T00:21:21.205Z,782.05
2018-01-20T00:21:25.219Z,782.07
2018-01-20T00:21:28.912Z,782.09
2018-01-20T00:21:32.605Z,782.1
2018-01-20T00:21:36.620Z,782.09
2018-01-20T00:21:40.738Z,782.15
2018-01-20T00:21:44.658Z,782.13
2018-01-20T00:21:48.573Z,782.11
2018-01-20T00:21:52.503Z,782.08
2018-01-20T00:21:56.635Z,782.09
2018-01-20T00:22:00.452Z,782.16
2018-01-20T00:22:04.554Z,782.17
2018-01-20T00:22:08.483Z,782.16
2018-01-20T00:22:12.379Z,782.2
2018-01-20T00:22:16.069Z,782.23
2018-01-20T00:22:20.086Z,782.22
2018-01-20T00:22:23.903Z,782.22
2018-01-20T00:22:27.895Z,782.19
2018-01-20T00:22:31.584Z,782.21
2018-01-20T00:22:35.503Z,782.27
2018-01-20T00:22:39.415Z,782.26
2018-01-20T00:22:43.325Z,782.28
2018-01-20T00:22:47.343Z,782.28
2018-01-20T00:22:51.141Z,782.29
2018-01-20T00:22:54.944Z,782.3
2018-01-20T00:22:59.075Z,782.31
2018-01-20T00:23:02.930Z,782.33
2018-01-20T00:23:06.839Z,782.35
2018-01-20T00:23:10.762Z,782.34
2018-01-20T00:23:14.782Z,782.32
2018-01-20T00:23:18.806Z,782.34
2018-01-20T00:23:22.825Z,782.35
2018-01-20T00:23:26.621Z,782.39
2018-01-20T00:23:30.419Z,782.35
2018-01-20T00:23:34.128Z,782.39
2018-01-20T00:23:38.043Z,782.35
2018-01-20T00:23:42.057Z,782.37
2018-01-20T00:23:46.187Z,782.37
2018-01-20T00:23:50.008Z,782.37
2018-01-20T00:23:53.924Z,782.36
2018-01-20T00:23:57.843Z,782.35
2018-01-20T00:24:01.899Z,782.37
2018-01-20T00:24:05.920Z,782.37
2018-01-20T00:24:09.928Z,782.31
2018-01-20T00:24:14.056Z,782.34
2018-01-20T00:24:18.081Z,782.35
2018-01-20T00:24:22.001Z,782.36
2018-01-20T00:24:25.809Z,782.39
2018-01-20T00:24:29.722Z,782.37
2018-01-20T00:24:33.637Z,782.38
2018-01-20T00:24:37.612Z,782.36
2018-01-20T00:24:41.519Z,782.36
2018-01-20T00:24:45.529Z,782.38
2018-01-20T00:24:49.609Z,782.41
2018-01-20T00:24:53.515Z,782.38
2018-01-20T00:24:57.415Z,782.4
2018-01-20T00:25:01.330Z,782.36
2018-01-20T00:25:05.245Z,782.39
2018-01-20T00:25:08.940Z,782.38
2018-01-20T00:25:13.056Z,782.41
2018-01-20T00:25:17.075Z,782.37
2018-01-20T00:25:21.210Z,782.38
2018-01-20T00:25:25.343Z,782.34
2018-01-20T00:25:29.482Z,782.36
2018-01-20T00:25:33.497Z,782.39
2018-01-20T00:25:37.420Z,782.37
2018-01-20T00:25:41.425Z,782.35
2018-01-20T00:25:45.218Z,782.31
2018-01-20T00:25:49.113Z,782.38
2018-01-20T00:25:52.924Z,782.4
2018-01-20T00:25:56.717Z,782.42
2018-01-20T00:26:00.443Z,782.39
2018-01-20T00:26:04.599Z,782.32
2018-01-20T00:26:08.706Z,782.31
2018-01-20T00:26:12.521Z,782.35
2018-01-20T00:26:16.537Z,782.35
2018-01-20T00:26:20.563Z,782.33
2018-01-20T00:26:24.473Z,782.35
2018-01-20T00:26:28.369Z,782.34
2018-01-20T00:26:32.283Z,782.37
2018-01-20T00:26:36.182Z,782.33
2018-01-20T00:26:40.243Z,782.31
2018-01-20T00:26:44.267Z,782.31
2018-01-20T00:26:48.069Z,782.34
2018-01-20T00:26:52.185Z,782.32
2018-01-20T00:26:56.196Z,782.33
2018-01-20T00:27:00.224Z,782.28
2018-01-20T00:27:04.400Z,782.32
2018-01-20T00:27:08.406Z,782.35
2018-01-20T00:27:12.310Z,782.3
2018-01-20T00:27:16.427Z,782.3
2018-01-20T00:27:20.449Z,782.29
2018-01-20T00:27:24.265Z,782.32
2018-01-20T00:27:27.970Z,782.33
2018-01-20T00:27:31.888Z,782.31
2018-01-20T00:27:36.012Z,782.32
2018-01-20T00:27:40.165Z,782.29
2018-01-20T00:27:44.071Z,782.33
2018-01-20T00:27:47.977Z,782.32
2018-01-20T00:27:51.987Z,782.3
2018-01-20T00:27:55.792Z,782.3
2018-01-20T00:27:59.712Z,782.28
2018-01-20T00:28:03.520Z,782.29
2018-01-20T00:28:07.343Z,782.28
2018-01-20T00:28:11.377Z,782.31
2018-01-20T00:28:15.302Z,782.29
2018-01-20T00:28:19.108Z,782.28
2018-01-20T00:28:23.131Z,782.28
2018-01-20T00:28:27.154Z,782.26
2018-01-20T00:28:30.849Z,782.26
2018-01-20T00:28:34.865Z,782.3
2018-01-20T00:28:38.693Z,782.26
2018-01-20T00:28:42.723Z,782.25
2018-01-20T00:28:46.739Z,782.22
2018-01-20T00:28:50.739Z,782.24
2018-01-20T00:28:54.658Z,782.21
2018-01-20T00:28:58.682Z,782.26
2018-01-20T00:29:03.162Z,782.25
2018-01-20T00:29:07.068Z,782.25
2018-01-20T00:29:10.968Z,782.26
2018-01-20T00:29:14.987Z,782.29
2018-01-20T00:29:19.116Z,782.28
2018-01-20T00:29:23.049Z,782.27
2018-01-20T00:29:27.064Z,782.27
2018-01-20T00:29:30.970Z,782.22
2018-01-20T00:29:34.884Z,782.22
2018-01-20T00:29:39.015Z,782.23
2018-01-20T00:29:42.940Z,782.25
2018-01-20T00:29:46.841Z,782.23
2018-01-20T00:29:50.745Z,782.22
2018-01-20T00:29:55.069Z,782.23
2018-01-20T00:29:58.873Z,782.22
2018-01-20T00:30:03.141Z,782.25
2018-01-20T00:30:07.071Z,782.22
2018-01-20T00:30:11.301Z,782.26
2018-01-20T00:30:15.312Z,782.25
2018-01-20T00:30:19.437Z,782.19
2018-01-20T00:30:23.492Z,782.23
2018-01-20T00:30:27.620Z,782.21
2018-01-20T00:30:31.791Z,782.21
2018-01-20T00:30:35.593Z,782.21
2018-01-20T00:30:39.717Z,782.19
2018-01-20T00:30:43.820Z,782.22
2018-01-20T00:30:47.727Z,782.24
2018-01-20T00:30:51.830Z,782.21
2018-01-20T00:30:55.752Z,782.21
2018-01-20T00:30:59.456Z,782.2
2018-01-20T00:31:03.475Z,782.24
2018-01-20T00:31:07.294Z,782.18
2018-01-20T00:31:11.439Z,782.2
2018-01-20T00:31:15.356Z,782.21
2018-01-20T00:31:19.583Z,782.21
2018-01-20T00:31:23.877Z,782.15
2018-01-20T00:31:27.872Z,782.17
2018-01-20T00:31:31.556Z,782.18
2018-01-20T00:31:35.250Z,782.15
2018-01-20T00:31:39.260Z,782.16
2018-01-20T00:31:43.168Z,782.16
2018-01-20T00:31:46.992Z,782.18
2018-01-20T00:31:50.807Z,782.18
2018-01-20T00:31:54.713Z,782.15
2018-01-20T00:31:58.848Z,782.16
2018-01-20T00:32:02.757Z,782.17
2018-01-20T00:32:06.874Z,782.16
2018-01-20T00:32:10.577Z,782.14
2018-01-20T00:32:14.594Z,782.14
2018-01-20T00:32:18.803Z,782.14
2018-01-20T00:32:22.812Z,782.17
2018-01-20T00:32:26.932Z,782.13
2018-01-20T00:32:30.750Z,782.13
2018-01-20T00:32:34.548Z,782.16
2018-01-20T00:32:38.469Z,782.15
2018-01-20T00:32:42.481Z,782.16
2018-01-20T00:32:46.497Z,782.13
2018-01-20T00:32:50.518Z,782.15
2018-01-20T00:32:54.532Z,782.15
2018-01-20T00:32:58.547Z,782.15
2018-01-20T00:33:02.599Z,782.12
2018-01-20T00:33:06.405Z,782.11
2018-01-20T00:33:10.411Z,782.1
2018-01-20T00:33:14.381Z,782.1
2018-01-20T00:33:18.503Z,782.13
2018-01-20T00:33:22.313Z,782.1
2018-01-20T00:33:26.124Z,782.08
2018-01-20T00:33:30.049Z,782.07
2018-01-20T00:33:34.269Z,782.08
2018-01-20T00:33:38.180Z,782.09
2018-01-20T00:33:42.182Z,782.08
2018-01-20T00:33:46.093Z,782.05
2018-01-20T00:33:50.019Z,782.07
2018-01-20T00:33:53.812Z,782.05
2018-01-20T00:33:57.630Z,782.05
2018-01-20T00:34:01.541Z,782.04
2018-01-20T00:34:05.455Z,782.07
2018-01-20T00:34:09.467Z,782.02
2018-01-20T00:34:13.263Z,782.05
2018-01-20T00:34:17.285Z,782.03
2018-01-20T00:34:21.405Z,782.05
2018-01-20T00:34:25.203Z,782.02
2018-01-20T00:34:29.004Z,782.01
2018-01-20T00:34:32.919Z,782.01
2018-01-20T00:34:36.726Z,781.99
2018-01-20T00:34:40.755Z,782.02
2018-01-20T00:34:44.566Z,781.99
2018-01-20T00:34:48.267Z,781.96
2018-01-20T00:34:52.181Z,781.96
2018-01-20T00:34:56.109Z,781.98
2018-01-20T00:35:00.138Z,781.96
2018-01-20T00:35:04.408Z,781.93
2018-01-20T00:35:08.323Z,781.93
2018-01-20T00:35:12.447Z,781.9
2018-01-20T00:35:16.137Z,781.92
2018-01-20T00:35:20.142Z,781.94
2018-01-20T00:35:24.047Z,781.89
2018-01-20T00:35:28.286Z,781.89
2018-01-20T00:35:32.316Z,781.92
2018-01-20T00:35:36.116Z,781.91
2018-01-20T00:35:40.117Z,781.89
2018-01-20T00:35:44.134Z,781.89
2018-01-20T00:35:48.239Z,781.87
2018-01-20T00:35:52.149Z,781.89
2018-01-20T00:35:55.859Z,781.88
2018-01-20T00:35:59.668Z,781.91
2018-01-20T00:36:03.582Z,781.91
2018-01-20T00:36:07.377Z,781.88
2018-01-20T00:36:11.505Z,781.9
2018-01-20T00:36:15.644Z,781.85
2018-01-20T00:36:19.774Z,781.87
2018-01-20T00:36:23.907Z,781.86
2018-01-20T00:36:27.709Z,781.89
2018-01-20T00:36:31.507Z,781.84
2018-01-20T00:36:35.429Z,781.85
2018-01-20T00:36:39.453Z,781.83
2018-01-20T00:36:43.371Z,781.79
2018-01-20T00:36:47.402Z,781.77
2018-01-20T00:36:51.310Z,781.81
2018-01-20T00:36:55.353Z,781.82
2018-01-20T00:36:59.117Z,781.8
2018-01-20T00:37:03.332Z,781.81
2018-01-20T00:37:07.032Z,781.79
2018-01-20T00:37:10.947Z,781.79
2018-01-20T00:37:15.269Z,781.82
2018-01-20T00:37:19.175Z,781.8
2018-01-20T00:37:23.191Z,781.81
2018-01-20T00:37:27.301Z,781.82
2018-01-20T00:37:31.323Z,781.84
2018-01-20T00:37:35.134Z,781.85
2018-01-20T00:37:38.936Z,781.84
2018-01-20T00:37:42.760Z,781.83
2018-01-20T00:37:46.563Z,781.85
2018-01-20T00:37:50.368Z,781.77
2018-01-20T00:37:54.370Z,781.8
2018-01-20T00:37:58.093Z,781.8
2018-01-20T00:38:02.570Z,781.8
2018-01-20T00:38:06.485Z,781.81
2018-01-20T00:38:10.545Z,781.86
2018-01-20T00:38:14.356Z,781.83
2018-01-20T00:38:18.584Z,781.82
2018-01-20T00:38:22.401Z,781.83
2018-01-20T00:38:26.423Z,781.83
2018-01-20T00:38:30.345Z,781.85
2018-01-20T00:38:34.376Z,781.82
2018-01-20T00:38:38.510Z,781.83
2018-01-20T00:38:42.530Z,781.85
2018-01-20T00:38:46.437Z,781.81
2018-01-20T00:38:50.347Z,781.83
2018-01-20T00:38:54.050Z,781.8
2018-01-20T00:38:57.951Z,781.83
2018-01-20T00:39:01.963Z,781.86
2018-01-20T00:39:05.769Z,781.8
2018-01-20T00:39:09.686Z,781.81
2018-01-20T00:39:13.594Z,781.8
2018-01-20T00:39:17.503Z,781.79
2018-01-20T00:39:21.622Z,781.82
2018-01-20T00:39:25.750Z,781.81
2018-01-20T00:39:29.775Z,781.81
2018-01-20T00:39:33.900Z,781.83
2018-01-20T00:39:37.909Z,781.79
2018-01-20T00:39:41.925Z,781.84
2018-01-20T00:39:45.838Z,781.83
2018-01-20T00:39:50.075Z,781.81
2018-01-20T00:39:53.873Z,781.84
2018-01-20T00:39:57.792Z,781.8
2018-01-20T00:40:01.944Z,781.81
2018-01-20T00:40:05.754Z,781.83
2018-01-20T00:40:09.666Z,781.8
2018-01-20T00:40:13.684Z,781.81
2018-01-20T00:40:17.707Z,781.84
2018-01-20T00:40:21.621Z,781.82
2018-01-20T00:40:25.425Z,781.83
2018-01-20T00:40:29.440Z,781.85
2018-01-20T00:40:33.244Z,781.82
2018-01-20T00:40:37.170Z,781.85
2018-01-20T00:40:41.251Z,781.84
2018-01-20T00:40:45.262Z,781.83
2018-01-20T00:40:49.178Z,781.82
2018-01-20T00:40:53.085Z,781.82
2018-01-20T00:40:56.994Z,781.84
2018-01-20T00:41:00.816Z,781.81
2018-01-20T00:41:04.836Z,781.82
2018-01-20T00:41:08.854Z,781.83
2018-01-20T00:41:12.762Z,781.84
2018-01-20T00:41:16.577Z,781.81
2018-01-20T00:41:20.789Z,781.84
2018-01-20T00:41:24.815Z,781.74
2018-01-20T00:41:28.825Z,781.78
2018-01-20T00:41:32.835Z,781.76
2018-01-20T00:41:36.536Z,781.78
2018-01-20T00:41:40.239Z,781.75
2018-01-20T00:41:44.290Z,781.81
2018-01-20T00:41:48.424Z,781.82
2018-01-20T00:41:52.333Z,781.82
2018-01-20T00:41:56.153Z,781.81
2018-01-20T00:42:00.072Z,781.82
2018-01-20T00:42:03.984Z,781.82
2018-01-20T00:42:08.005Z,781.8
2018-01-20T00:42:12.121Z,781.77
2018-01-20T00:42:16.018Z,781.8
2018-01-20T00:42:20.237Z,781.79
2018-01-20T00:42:24.159Z,781.84
2018-01-20T00:42:28.092Z,781.82
2018-01-20T00:42:32.056Z,781.8
2018-01-20T00:42:35.979Z,781.77
2018-01-20T00:42:39.992Z,781.76
2018-01-20T00:42:43.713Z,781.79
2018-01-20T00:42:48.051Z,781.79
2018-01-20T00:42:52.169Z,781.76
2018-01-20T00:42:56.188Z,781.77
2018-01-20T00:43:00.197Z,781.76
2018-01-20T00:43:04.563Z,781.76
2018-01-20T00:43:08.357Z,781.76
2018-01-20T00:43:12.410Z,781.77
2018-01-20T00:43:16.520Z,781.77
2018-01-20T00:43:20.532Z,781.73
2018-01-20T00:43:24.858Z,781.74
2018-01-20T00:43:28.779Z,781.76
2018-01-20T00:43:32.892Z,781.72
2018-01-20T00:43:36.806Z,781.74
2018-01-20T00:43:40.840Z,781.7
2018-01-20T00:43:44.871Z,781.73
2018-01-20T00:43:49.004Z,781.72
2018-01-20T00:43:52.986Z,781.72
2018-01-20T00:43:56.689Z,781.7
2018-01-20T00:44:00.606Z,781.72
2018-01-20T00:44:04.832Z,781.7
2018-01-20T00:44:08.752Z,781.7
2018-01-20T00:44:12.782Z,781.67
2018-01-20T00:44:16.695Z,781.7
2018-01-20T00:44:20.819Z,781.68
2018-01-20T00:44:24.719Z,781.65
2018-01-20T00:44:28.632Z,781.64
2018-01-20T00:44:32.647Z,781.64
2018-01-20T00:44:36.764Z,781.63
2018-01-20T00:44:40.483Z,781.63
2018-01-20T00:44:44.405Z,781.61
2018-01-20T00:44:48.302Z,781.62
2018-01-20T00:44:52.201Z,781.68
2018-01-20T00:44:56.215Z,781.65
2018-01-20T00:45:00.030Z,781.63
2018-01-20T00:45:04.263Z,781.61
2018-01-20T00:45:08.172Z,781.63
2018-01-20T00:45:12.082Z,781.63
2018-01-20T00:45:16.119Z,781.6
2018-01-20T00:45:20.141Z,781.61
2018-01-20T00:45:24.370Z,781.62
2018-01-20T00:45:28.290Z,781.6
2018-01-20T00:45:32.215Z,781.6
2018-01-20T00:45:36.547Z,781.62
2018-01-20T00:45:40.558Z,781.62
2018-01-20T00:45:44.469Z,781.59
2018-01-20T00:45:48.272Z,781.61
2018-01-20T00:45:52.278Z,781.6
2018-01-20T00:45:56.303Z,781.58
2018-01-20T00:46:00.218Z,781.56
2018-01-20T00:46:04.244Z,781.55
2018-01-20T00:46:08.171Z,781.53
2018-01-20T00:46:12.078Z,781.49
2018-01-20T00:46:15.983Z,781.52
2018-01-20T00:46:19.896Z,781.5
2018-01-20T00:46:23.713Z,781.51
2018-01-20T00:46:27.728Z,781.48
2018-01-20T00:46:31.635Z,781.51
2018-01-20T00:46:35.561Z,781.49
2018-01-20T00:46:39.687Z,781.45
2018-01-20T00:46:43.502Z,781.51
2018-01-20T00:46:47.185Z,781.49
2018-01-20T00:46:50.890Z,781.47
2018-01-20T00:46:54.742Z,781.49
2018-01-20T00:46:58.533Z,781.44
2018-01-20T00:47:02.538Z,781.46
2018-01-20T00:47:06.238Z,781.4
2018-01-20T00:47:10.044Z,781.41
2018-01-20T00:47:14.314Z,781.42
2018-01-20T00:47:18.078Z,781.41
2018-01-20T00:47:22.101Z,781.38
2018-01-20T00:47:26.240Z,781.41
2018-01-20T00:47:29.938Z,781.37
2018-01-20T00:47:33.836Z,781.36
2018-01-20T00:47:37.745Z,781.38
2018-01-20T00:47:41.453Z,781.38
2018-01-20T00:47:45.147Z,781.34
2018-01-20T00:47:49.275Z,781.34
2018-01-20T00:47:53.085Z,781.32
2018-01-20T00:47:56.992Z,781.31
2018-01-20T00:48:01.019Z,781.27
2018-01-20T00:48:04.924Z,781.24
2018-01-20T00:48:08.830Z,781.29
2018-01-20T00:48:13.053Z,781.25
2018-01-20T00:48:17.188Z,781.26
2018-01-20T00:48:21.187Z,781.21
2018-01-20T00:48:25.275Z,781.25
2018-01-20T00:48:29.188Z,781.27
2018-01-20T00:48:32.986Z,781.23
2018-01-20T00:48:36.801Z,781.23
2018-01-20T00:48:40.611Z,781.15
2018-01-20T00:48:44.520Z,781.23
2018-01-20T00:48:48.795Z,781.19
2018-01-20T00:48:52.719Z,781.19
2018-01-20T00:48:56.518Z,781.22
2018-01-20T00:49:00.438Z,781.19
2018-01-20T00:49:04.350Z,781.17
2018-01-20T00:49:08.457Z,781.16
2018-01-20T00:49:12.261Z,781.17
2018-01-20T00:49:16.276Z,781.16
2018-01-20T00:49:20.315Z,781.13
2018-01-20T00:49:24.447Z,781.07
2018-01-20T00:49:28.147Z,781.12